MARK1: Marion Levee

Data processed at Tue May 21 2019 23:50


All information presented herein is the property of the government of the United States of America and may be revised or deleted at any time without prior notice.
Dissemination of this information without the expressed written consent of the Public Affairs Office, Tulsa District U.S. Army Corps of Engineers is strictly prohibited.
These data are gathered electronically and, as presented, have not undergone any form of quality control. These data are not guaranteed to be valid or correct.
Go to home page.
Go to station list.
Go to home page.

Upstream stations:

Downstream station:
Previous Day
Next Day
Current Day
    
SHEF ID:       MARK1     COTTONWOOD R AT MARION, KS
STATION TYPE:  
Regulating: Stage =    16.00, Flow =     4479

               PRECIP     STAGE  RIV-FLOW  BAT-LOAD
                   in        ft       cfs      volt
              Ccp-Rev   Ccp-Rev   Ccp-Rev   Ccp-Rev
(US/Central)
05/21 00:00      0.00     16.38      4671     12.77
05/21 01:00      0.00     17.39      5197     12.77
05/21 02:00      0.00     18.27      5675     12.77
05/21 03:00      0.00     18.92      6041     12.77
05/21 04:00      0.00     19.54      6398     12.77
05/21 05:00      0.28     19.96      6646     12.77
05/21 06:00      0.32     20.48      6958     12.77
05/21 07:00      0.43     21.28      7450     12.77
05/21 08:00      0.34     22.32      8112     12.77
05/21 09:00      0.07     23.52      8906     12.77
05/21 10:00      0.01     24.50      9578     12.83
05/21 11:00      0.00     25.45     10251     13.00
05/21 12:00      0.00     26.10     10723     13.30
05/21 13:00      0.00     26.51     11025     13.42
05/21 14:00      0.00     27.14     11497     13.18
05/21 15:00      0.01     27.29     11610     13.53
05/21 16:00      0.01     27.57     11823     13.88
05/21 17:00      0.02     27.54     11801     13.77
05/21 18:00      0.00     27.45     11732     13.42
05/21 19:00      0.01     27.53     11793     13.12
05/21 20:00      0.00     27.23     11565     13.07
05/21 21:00      0.00     27.53     11793     13.00
05/21 22:00      0.00     27.50     11770     12.95
05/21 23:00      0.00     27.42     11709     12.89